Time;durP1;ratioP1;P1;durP2;ratioP2;P2;SDS_P1;SDS_P2;PMS_P1;PMS_P2;Temp;Humidity;BMP_temperature;BMP_pressure;BME280_temperature;BME280_humidity;BME280_pressure;Samples;Min_cycle;Max_cycle;Signal;HPM_P1;HPM_P2
2022/01/15 00:01:39;;;;;;;59.95;26.27;;;4.90;99.90;;;;;;4163173;28;20037;-64
2022/01/15 00:03:40;;;;;;;50.25;23.75;;;4.90;99.90;;;;;;4165457;28;20072;-63
2022/01/15 00:05:40;;;;;;;56.05;24.08;;;4.90;99.90;;;;;;4164585;28;20514;-62
2022/01/15 00:07:42;;;;;;;56.95;24.63;;;4.70;99.90;;;;;;4164136;28;20061;-63
2022/01/15 00:09:48;;;;;;;55.10;24.17;;;4.70;99.90;;;;;;4163624;28;20048;-63
2022/01/15 00:11:49;;;;;;;52.30;23.40;;;4.80;99.90;;;;;;4163665;28;20468;-63
2022/01/15 00:14:37;;;;;;;53.28;24.23;;;4.80;99.90;;;;;;4162551;28;20048;-63
2022/01/15 00:16:27;;;;;;;51.95;23.65;;;4.80;99.90;;;;;;4144625;28;20068;-63
2022/01/15 00:18:40;;;;;;;59.30;25.70;;;4.80;99.90;;;;;;4148990;28;20041;-63
2022/01/15 00:20:41;;;;;;;51.78;23.27;;;4.70;99.90;;;;;;4151755;28;20030;-63
2022/01/15 00:22:43;;;;;;;64.40;25.58;;;4.80;99.90;;;;;;4148691;28;20038;-63
2022/01/15 00:24:45;;;;;;;57.17;25.37;;;4.80;99.90;;;;;;4147908;28;20041;-63
2022/01/15 00:26:45;;;;;;;49.95;22.13;;;4.70;99.90;;;;;;4151794;28;20034;-63
2022/01/15 00:28:46;;;;;;;59.15;25.20;;;4.70;99.90;;;;;;4148582;28;20038;-63
2022/01/15 00:30:47;;;;;;;60.53;25.35;;;4.70;99.90;;;;;;4155613;28;20030;-63
2022/01/15 00:32:49;;;;;;;54.97;24.35;;;4.60;99.90;;;;;;4152790;28;20508;-63
2022/01/15 00:34:49;;;;;;;53.75;22.85;;;4.60;99.90;;;;;;4150528;28;20132;-63
2022/01/15 00:36:50;;;;;;;47.22;21.27;;;4.70;99.90;;;;;;4164229;28;20038;-63
2022/01/15 00:38:51;;;;;;;46.38;21.30;;;4.70;99.90;;;;;;4165086;28;20423;-63
2022/01/15 00:40:52;;;;;;;43.85;20.17;;;4.70;99.90;;;;;;4163685;28;20051;-63
2022/01/15 00:42:52;;;;;;;49.83;21.17;;;4.80;99.90;;;;;;4164972;28;20053;-63
2022/01/15 00:44:55;;;;;;;43.47;19.15;;;4.70;99.90;;;;;;4165119;28;20099;-63
2022/01/15 00:46:55;;;;;;;43.92;19.70;;;4.70;99.90;;;;;;4163614;28;20382;-63
2022/01/15 00:48:56;;;;;;;44.83;19.48;;;4.70;99.90;;;;;;4164595;28;20044;-63
2022/01/15 00:50:56;;;;;;;39.08;19.40;;;4.60;99.90;;;;;;4163562;28;20037;-63
2022/01/15 00:52:57;;;;;;;40.88;19.08;;;4.70;99.90;;;;;;4164655;28;20479;-63
2022/01/15 00:54:58;;;;;;;44.70;20.10;;;4.60;99.90;;;;;;4164645;28;20060;-63
2022/01/15 00:56:58;;;;;;;44.53;18.83;;;4.60;99.90;;;;;;4163804;28;20083;-63
2022/01/15 00:58:59;;;;;;;44.35;20.42;;;4.60;99.90;;;;;;4164309;28;20431;-63
2022/01/15 01:01:00;;;;;;;48.25;21.67;;;4.50;99.90;;;;;;4163402;28;20053;-63
2022/01/15 01:03:00;;;;;;;38.33;18.27;;;4.50;99.90;;;;;;4164458;28;20035;-63
2022/01/15 01:05:01;;;;;;;41.45;18.27;;;4.60;99.90;;;;;;4164358;28;20123;-63
2022/01/15 01:07:04;;;;;;;39.17;17.35;;;4.60;99.90;;;;;;4161984;28;20041;-65
2022/01/15 01:09:04;;;;;;;51.38;21.33;;;4.60;99.90;;;;;;4164593;28;20084;-63
2022/01/15 01:11:11;;;;;;;50.10;21.45;;;4.50;99.90;;;;;;4163566;28;20095;-63
2022/01/15 01:24:41;;;;;;;44.75;20.55;;;4.50;99.90;;;;;;4163698;28;20405;-63
2022/01/15 01:26:53;;;;;;;43.67;18.98;;;4.60;99.90;;;;;;4163254;28;20037;-63
2022/01/15 01:30:06;;;;;;;41.30;17.70;;;4.50;99.90;;;;;;4164296;28;20457;-63
2022/01/15 01:31:32;;;;;;;42.55;18.63;;;4.60;99.90;;;;;;4145944;28;20124;-63
2022/01/15 01:33:37;;;;;;;46.22;20.40;;;4.60;99.90;;;;;;4163876;28;20456;-64
2022/01/15 01:35:42;;;;;;;40.25;17.90;;;4.50;99.90;;;;;;4163095;28;20037;-63
2022/01/15 01:37:48;;;;;;;37.03;16.65;;;4.40;99.90;;;;;;4163019;28;20030;-63
2022/01/15 01:40:05;;;;;;;35.63;15.40;;;4.50;99.90;;;;;;4160983;28;20044;-63
2022/01/15 01:44:18;;;;;;;37.33;16.85;;;4.50;99.90;;;;;;4164139;28;20076;-63
2022/01/15 01:48:26;;;;;;;39.83;18.02;;;4.50;99.90;;;;;;4164212;28;20164;-63
2022/01/15 01:50:28;;;;;;;36.92;16.45;;;4.50;99.90;;;;;;4163219;28;20038;-63
2022/01/15 01:52:29;;;;;;;37.53;17.60;;;4.50;99.90;;;;;;4163951;28;20033;-63
2022/01/15 01:54:30;;;;;;;36.30;16.77;;;4.50;99.90;;;;;;4164020;28;20180;-63
2022/01/15 01:56:31;;;;;;;41.50;17.63;;;4.50;99.90;;;;;;4163046;28;20037;-63
2022/01/15 01:58:32;;;;;;;36.22;17.13;;;4.50;99.90;;;;;;4163989;28;20033;-63
2022/01/15 02:00:33;;;;;;;37.67;16.25;;;4.60;99.90;;;;;;4162921;28;20041;-66
2022/01/15 02:02:33;;;;;;;34.83;16.40;;;4.60;99.90;;;;;;4163765;28;20034;-64
2022/01/15 02:04:34;;;;;;;32.80;15.77;;;4.60;99.90;;;;;;4163770;28;20099;-63
2022/01/15 02:06:36;;;;;;;29.90;13.98;;;4.60;99.90;;;;;;4162188;28;20030;-63
2022/01/15 02:08:37;;;;;;;40.10;16.73;;;4.60;99.90;;;;;;4164055;28;20131;-63
2022/01/15 02:10:38;;;;;;;38.70;16.65;;;4.60;99.90;;;;;;4161500;28;20400;-63
2022/01/15 02:12:40;;;;;;;43.63;17.75;;;4.60;99.90;;;;;;4163916;28;20131;-63
2022/01/15 02:14:40;;;;;;;48.00;19.95;;;4.60;99.90;;;;;;4163648;28;20033;-63
2022/01/15 02:16:41;;;;;;;44.47;18.02;;;4.60;99.90;;;;;;4162476;28;20025;-63
2022/01/15 02:18:42;;;;;;;44.83;18.13;;;4.60;99.90;;;;;;4162308;28;20124;-63
2022/01/15 02:21:02;;;;;;;43.83;18.77;;;4.70;99.90;;;;;;4146064;28;20041;-63
2022/01/15 02:25:25;;;;;;;39.00;17.40;;;4.70;99.90;;;;;;4153229;28;20397;-63
2022/01/15 02:27:25;;;;;;;38.72;17.27;;;4.80;99.90;;;;;;4156161;28;20049;-63
2022/01/15 02:29:26;;;;;;;46.05;18.40;;;4.80;99.90;;;;;;4150348;28;20046;-63
2022/01/15 02:31:29;;;;;;;41.55;18.23;;;4.70;99.90;;;;;;4144912;28;20038;-63
2022/01/15 02:33:30;;;;;;;47.03;19.90;;;4.80;99.90;;;;;;4152870;28;20045;-63
2022/01/15 02:35:32;;;;;;;39.33;17.83;;;4.80;99.90;;;;;;4162801;28;20057;-63
2022/01/15 02:37:32;;;;;;;44.33;18.08;;;4.80;99.90;;;;;;4163351;28;20034;-63
2022/01/15 02:39:36;;;;;;;38.10;17.42;;;4.80;99.90;;;;;;4163880;28;20056;-63
2022/01/15 02:41:38;;;;;;;45.90;19.40;;;4.90;99.90;;;;;;4162172;28;20481;-64
2022/01/15 02:43:39;;;;;;;;;;;4.90;99.90;;;;;;4162739;28;20033;-63
2022/01/15 02:45:44;;;;;;;40.45;17.30;;;4.90;99.90;;;;;;4151030;28;19910;-63
2022/01/15 02:48:02;;;;;;;45.95;18.92;;;4.80;99.90;;;;;;4163173;28;20439;-63
2022/01/15 02:50:03;;;;;;;44.05;17.95;;;4.90;99.90;;;;;;4163342;28;20038;-64
2022/01/15 02:52:04;;;;;;;44.85;18.73;;;4.90;99.90;;;;;;4159387;28;20470;-64
2022/01/15 02:54:05;;;;;;;47.28;18.52;;;4.80;99.90;;;;;;4156605;28;20489;-63
2022/01/15 02:56:06;;;;;;;43.90;18.40;;;4.90;99.90;;;;;;4148214;28;20049;-63
2022/01/15 02:58:07;;;;;;;47.30;19.05;;;4.90;99.90;;;;;;4156829;28;20040;-63
2022/01/15 03:00:08;;;;;;;46.80;18.92;;;4.90;99.90;;;;;;4162750;28;20374;-65
2022/01/15 03:02:09;;;;;;;46.70;19.65;;;4.90;99.90;;;;;;4162397;28;20080;-63
2022/01/15 03:04:09;;;;;;;44.53;18.33;;;4.90;99.90;;;;;;4163214;28;20050;-64
2022/01/15 03:06:15;;;;;;;44.60;17.92;;;4.90;99.90;;;;;;4162129;28;20033;-63
2022/01/15 03:08:16;;;;;;;47.65;19.13;;;4.90;99.90;;;;;;4163055;28;20110;-63
2022/01/15 03:10:17;;;;;;;50.70;19.50;;;4.90;99.90;;;;;;4154631;28;20572;-63
2022/01/15 03:12:17;;;;;;;48.80;20.25;;;4.90;99.90;;;;;;4162675;28;20840;-63
2022/01/15 03:14:19;;;;;;;43.88;18.52;;;4.80;99.90;;;;;;4162969;28;20091;-63
2022/01/15 03:16:21;;;;;;;52.20;20.20;;;4.80;99.90;;;;;;4162165;28;20045;-63
2022/01/15 03:18:22;;;;;;;51.90;21.37;;;4.80;99.90;;;;;;4161705;28;20025;-63
2022/01/15 03:20:23;;;;;;;48.30;20.42;;;4.80;99.90;;;;;;4164955;28;20400;-63
2022/01/15 03:22:23;;;;;;;48.55;19.83;;;4.80;99.90;;;;;;4163337;28;20041;-63
2022/01/15 03:24:24;;;;;;;42.00;17.27;;;4.80;99.90;;;;;;4158618;28;20497;-63
2022/01/15 03:26:24;;;;;;;47.05;19.13;;;4.80;99.90;;;;;;4164407;28;20041;-63
2022/01/15 03:28:25;;;;;;;48.20;19.20;;;4.90;99.90;;;;;;4165591;28;20491;-63
2022/01/15 03:30:26;;;;;;;46.80;18.67;;;4.90;99.90;;;;;;4165149;28;20038;-64
2022/01/15 03:32:27;;;;;;;57.55;20.35;;;4.90;99.90;;;;;;4165670;28;20488;-64
2022/01/15 03:34:27;;;;;;;49.22;19.23;;;5.00;99.90;;;;;;4159064;28;20038;-64
2022/01/15 03:36:28;;;;;;;39.97;17.88;;;5.00;99.90;;;;;;4165463;28;20033;-64
2022/01/15 03:38:28;;;;;;;50.33;20.77;;;5.00;99.90;;;;;;4165838;28;20029;-64
2022/01/15 03:40:29;;;;;;;51.47;20.63;;;5.00;99.90;;;;;;4165287;28;20473;-63
2022/01/15 03:42:30;;;;;;;46.80;18.02;;;5.00;99.90;;;;;;4160665;28;20404;-63
2022/01/15 03:44:30;;;;;;;51.58;20.65;;;5.00;99.90;;;;;;4157763;28;20045;-63
2022/01/15 03:46:31;;;;;;;45.70;18.30;;;5.00;99.90;;;;;;4164844;28;20037;-63
2022/01/15 03:48:32;;;;;;;50.35;20.00;;;5.00;99.90;;;;;;4165516;28;20033;-62
2022/01/15 03:50:33;;;;;;;44.20;18.85;;;5.00;99.90;;;;;;4161973;28;20037;-63
2022/01/15 03:52:34;;;;;;;41.92;17.25;;;5.00;99.90;;;;;;4164545;28;20033;-63
2022/01/15 03:54:35;;;;;;;47.13;20.02;;;5.00;99.90;;;;;;4164958;28;20038;-67
2022/01/15 03:56:36;;;;;;;51.60;19.80;;;5.00;99.90;;;;;;4164711;28;20029;-63
2022/01/15 03:58:36;;;;;;;45.50;18.00;;;5.00;99.90;;;;;;4162461;28;20441;-65
2022/01/15 04:00:37;;;;;;;47.53;19.00;;;5.00;99.90;;;;;;4163997;28;20539;-64
2022/01/15 04:02:38;;;;;;;42.10;17.73;;;5.00;99.90;;;;;;4165478;28;20034;-65
2022/01/15 04:04:39;;;;;;;45.40;17.58;;;5.00;99.90;;;;;;4165072;28;20048;-65
2022/01/15 04:06:41;;;;;;;41.72;15.95;;;4.90;99.90;;;;;;4163988;28;20041;-65
2022/01/15 04:08:41;;;;;;;36.20;15.32;;;4.90;99.90;;;;;;4156954;28;20041;-63
2022/01/15 04:10:42;;;;;;;37.40;15.77;;;5.00;99.90;;;;;;4161548;28;20029;-63
2022/01/15 04:12:43;;;;;;;34.63;16.15;;;4.90;99.90;;;;;;4159649;28;20029;-63
2022/01/15 04:14:44;;;;;;;32.20;14.50;;;4.90;99.90;;;;;;4159129;28;20124;-63
2022/01/15 04:16:45;;;;;;;34.95;14.77;;;4.90;99.90;;;;;;4159595;28;20036;-63
2022/01/15 04:18:45;;;;;;;32.38;14.40;;;4.90;99.90;;;;;;4165233;28;20105;-63
2022/01/15 04:20:46;;;;;;;28.98;12.75;;;4.90;99.90;;;;;;4164225;28;20064;-63
2022/01/15 04:22:48;;;;;;;28.98;12.30;;;4.90;99.90;;;;;;4164794;28;20029;-63
2022/01/15 04:24:48;;;;;;;26.15;11.93;;;4.90;99.90;;;;;;4160909;28;20122;-63
2022/01/15 04:26:49;;;;;;;23.15;11.80;;;4.90;99.90;;;;;;4162910;28;20426;-63
2022/01/15 04:28:50;;;;;;;24.73;12.10;;;4.90;99.90;;;;;;4164809;28;21296;-63
2022/01/15 04:30:51;;;;;;;25.23;11.70;;;4.90;99.90;;;;;;4163616;28;20042;-63
2022/01/15 04:32:52;;;;;;;21.10;10.57;;;4.80;99.90;;;;;;4164347;28;20060;-63
2022/01/15 04:34:52;;;;;;;21.13;11.00;;;4.90;99.90;;;;;;4163325;28;20120;-63
2022/01/15 04:37:00;;;;;;;16.85;9.18;;;4.80;99.90;;;;;;4163857;28;20048;-63
2022/01/15 04:39:01;;;;;;;16.05;8.38;;;4.80;99.90;;;;;;4164684;28;20464;-63
2022/01/15 04:41:02;;;;;;;16.02;8.75;;;4.70;99.90;;;;;;4164062;28;20041;-63
2022/01/15 04:43:02;;;;;;;17.10;8.43;;;4.60;99.90;;;;;;4163565;28;20100;-63
2022/01/15 04:45:07;;;;;;;15.55;8.50;;;4.60;99.90;;;;;;4164464;28;20384;-64
2022/01/15 04:47:08;;;;;;;18.23;9.07;;;4.70;99.90;;;;;;4164247;28;20041;-64
2022/01/15 04:49:08;;;;;;;16.30;9.15;;;4.60;99.90;;;;;;4164641;28;20079;-63
2022/01/15 04:51:09;;;;;;;21.95;10.65;;;4.60;99.90;;;;;;4158223;28;20045;-63
2022/01/15 04:53:09;;;;;;;30.23;13.88;;;4.60;99.90;;;;;;4156032;28;20060;-63
2022/01/15 04:55:12;;;;;;;35.25;16.45;;;4.60;99.90;;;;;;4154688;28;20127;-63
2022/01/15 04:57:12;;;;;;;36.05;15.65;;;4.60;99.90;;;;;;4158589;28;20095;-63
2022/01/15 04:59:13;;;;;;;35.97;15.98;;;4.60;99.90;;;;;;4156039;28;20456;-63
2022/01/15 05:01:13;;;;;;;35.95;15.88;;;4.60;99.90;;;;;;4159781;28;20037;-63
2022/01/15 05:03:14;;;;;;;31.73;14.82;;;4.60;99.90;;;;;;4153162;28;20129;-63
2022/01/15 05:05:15;;;;;;;37.10;16.95;;;4.60;99.90;;;;;;4147376;28;20042;-63
2022/01/15 05:07:15;;;;;;;38.55;17.00;;;4.60;99.90;;;;;;4162397;28;20069;-63
2022/01/15 05:09:16;;;;;;;32.40;15.30;;;4.60;99.90;;;;;;4155346;28;20385;-63
2022/01/15 05:11:32;;;;;;;38.45;16.00;;;4.60;99.90;;;;;;4156818;28;20056;-63
2022/01/15 05:13:36;;;;;;;34.88;15.95;;;4.50;99.90;;;;;;4163074;28;20112;-63
2022/01/15 05:15:36;;;;;;;36.28;16.67;;;4.50;99.90;;;;;;4162941;28;20152;-63
2022/01/15 05:17:37;;;;;;;35.53;15.90;;;4.50;99.90;;;;;;4163518;28;20053;-64
2022/01/15 05:19:37;;;;;;;29.15;13.80;;;4.40;99.90;;;;;;4155317;28;20548;-63
2022/01/15 05:21:38;;;;;;;31.73;13.77;;;4.40;99.90;;;;;;4160104;28;20477;-64
2022/01/15 05:23:39;;;;;;;37.60;16.05;;;4.40;99.90;;;;;;4164200;28;20050;-63
2022/01/15 05:25:40;;;;;;;30.35;14.57;;;4.20;99.90;;;;;;4163148;28;20048;-63
2022/01/15 05:27:41;;;;;;;34.97;14.75;;;4.10;99.90;;;;;;4159581;28;20037;-64
2022/01/15 05:29:42;;;;;;;33.70;15.05;;;4.10;99.90;;;;;;4163091;28;20389;-63
2022/01/15 05:31:43;;;;;;;32.92;13.93;;;4.10;99.90;;;;;;4160046;28;20033;-63
2022/01/15 05:33:43;;;;;;;26.52;12.93;;;4.00;99.90;;;;;;4163744;28;20375;-63
2022/01/15 05:35:44;;;;;;;24.00;12.38;;;3.90;99.90;;;;;;4162908;28;20033;-63
2022/01/15 05:37:44;;;;;;;24.80;12.75;;;3.90;99.90;;;;;;4164101;28;20033;-63
2022/01/15 05:39:45;;;;;;;25.25;13.38;;;4.00;99.90;;;;;;4162982;28;20049;-63
2022/01/15 05:41:46;;;;;;;23.30;11.93;;;3.90;99.90;;;;;;4158686;28;20077;-63
2022/01/15 05:43:46;;;;;;;24.00;11.82;;;3.90;99.90;;;;;;4164002;28;20380;-63
2022/01/15 05:45:47;;;;;;;21.13;10.77;;;3.90;99.90;;;;;;4163294;28;20060;-63
2022/01/15 05:47:48;;;;;;;23.45;11.45;;;3.90;99.90;;;;;;4161995;28;20037;-63
2022/01/15 05:49:49;;;;;;;23.88;11.40;;;3.90;99.90;;;;;;4162472;28;20050;-63
2022/01/15 05:51:49;;;;;;;25.38;12.48;;;3.80;99.90;;;;;;4161671;28;20110;-63
2022/01/15 05:53:50;;;;;;;25.63;13.02;;;3.70;99.90;;;;;;4162595;28;20050;-63
2022/01/15 05:55:51;;;;;;;25.67;12.50;;;3.70;99.90;;;;;;4163151;28;20091;-63
2022/01/15 05:57:51;;;;;;;23.25;11.85;;;3.60;99.90;;;;;;4163617;28;20061;-63
2022/01/15 05:59:52;;;;;;;23.83;11.27;;;3.70;99.90;;;;;;4162871;28;20455;-63
2022/01/15 06:01:52;;;;;;;22.63;11.43;;;3.70;99.90;;;;;;4158662;28;20037;-63
2022/01/15 06:03:53;;;;;;;20.40;10.63;;;3.70;99.90;;;;;;4163615;28;20388;-63
2022/01/15 06:05:54;;;;;;;23.70;12.18;;;3.70;99.90;;;;;;4162934;28;20105;-63
2022/01/15 06:07:55;;;;;;;24.70;11.75;;;3.60;99.90;;;;;;4163501;28;20041;-63
2022/01/15 06:09:55;;;;;;;25.80;12.60;;;3.60;99.90;;;;;;4161479;28;20519;-63
2022/01/15 06:11:56;;;;;;;24.48;12.88;;;3.50;99.90;;;;;;4159428;28;20396;-63
2022/01/15 06:13:57;;;;;;;22.17;11.82;;;3.60;99.90;;;;;;4156141;28;20046;-63
2022/01/15 06:15:57;;;;;;;19.83;10.32;;;3.60;99.90;;;;;;4154903;28;20033;-63
2022/01/15 06:17:58;;;;;;;19.40;10.18;;;3.60;99.90;;;;;;4158936;28;20041;-63
2022/01/15 06:19:58;;;;;;;21.30;10.02;;;3.60;99.90;;;;;;4161084;28;20049;-63
2022/01/15 06:21:59;;;;;;;21.45;11.52;;;3.60;99.90;;;;;;4159118;28;20547;-63
2022/01/15 06:24:00;;;;;;;17.52;9.95;;;3.60;99.90;;;;;;4161063;28;20052;-63
2022/01/15 06:26:00;;;;;;;16.65;9.75;;;3.50;99.90;;;;;;4162484;28;20037;-63
2022/01/15 06:28:01;;;;;;;19.45;9.93;;;3.50;99.90;;;;;;4162747;28;20076;-63
2022/01/15 06:30:03;;;;;;;21.85;11.65;;;3.60;99.90;;;;;;4160859;28;20037;-63
2022/01/15 06:32:04;;;;;;;21.13;11.13;;;3.50;99.90;;;;;;4174720;28;20032;-63
2022/01/15 06:34:05;;;;;;;21.23;11.50;;;3.50;99.90;;;;;;4163192;28;20037;-63
2022/01/15 06:36:05;;;;;;;20.10;11.45;;;3.50;99.90;;;;;;4162475;28;20053;-63
2022/01/15 06:38:06;;;;;;;23.80;12.73;;;3.50;99.90;;;;;;4163303;28;20069;-63
2022/01/15 06:40:07;;;;;;;22.75;11.75;;;3.30;99.90;;;;;;4159054;28;20037;-64
2022/01/15 06:42:08;;;;;;;24.85;13.23;;;3.30;99.90;;;;;;4159980;28;20046;-64
2022/01/15 06:44:09;;;;;;;29.30;14.32;;;3.30;99.90;;;;;;4163167;28;20118;-63
2022/01/15 06:46:09;;;;;;;29.10;14.90;;;3.40;99.90;;;;;;4162217;28;20034;-63
2022/01/15 06:48:10;;;;;;;35.45;19.77;;;3.30;99.90;;;;;;4162833;28;20047;-64
2022/01/15 06:50:11;;;;;;;39.00;20.40;;;3.10;99.90;;;;;;4160530;28;20084;-64
2022/01/15 06:52:12;;;;;;;33.30;17.98;;;3.10;99.90;;;;;;4160997;28;20038;-63
2022/01/15 06:54:13;;;;;;;37.38;17.98;;;3.20;99.90;;;;;;4165898;28;20045;-63
2022/01/15 06:56:14;;;;;;;31.08;16.20;;;3.20;99.90;;;;;;4163628;28;20042;-63
2022/01/15 06:58:15;;;;;;;32.33;16.65;;;3.20;99.90;;;;;;4164369;28;20083;-63
2022/01/15 07:00:16;;;;;;;36.83;19.38;;;3.10;99.90;;;;;;4157863;28;20065;-63
2022/01/15 07:02:17;;;;;;;37.55;19.20;;;3.10;99.90;;;;;;4162518;28;20094;-63
2022/01/15 07:04:17;;;;;;;40.08;19.58;;;3.10;99.90;;;;;;4166110;28;20101;-63
2022/01/15 07:06:18;;;;;;;36.95;19.40;;;3.00;99.90;;;;;;4164629;28;20055;-63
2022/01/15 07:08:19;;;;;;;36.88;20.05;;;3.00;99.90;;;;;;4166296;28;20037;-63
2022/01/15 07:10:19;;;;;;;43.22;22.80;;;3.10;99.90;;;;;;4162410;28;20040;-63
2022/01/15 07:12:20;;;;;;;43.72;22.25;;;3.10;99.90;;;;;;4165200;28;20072;-63
2022/01/15 07:14:20;;;;;;;48.47;23.73;;;3.00;99.90;;;;;;4166066;28;20116;-63
2022/01/15 07:16:21;;;;;;;49.58;23.50;;;3.10;99.90;;;;;;4163647;28;20040;-63
2022/01/15 07:18:22;;;;;;;49.72;25.15;;;3.10;99.90;;;;;;4165961;28;20033;-63
2022/01/15 07:20:22;;;;;;;47.55;23.98;;;3.00;99.90;;;;;;4158675;28;20484;-63
2022/01/15 07:22:23;;;;;;;48.40;23.85;;;3.00;99.90;;;;;;4164042;28;20025;-63
2022/01/15 07:24:23;;;;;;;47.10;22.73;;;3.00;99.90;;;;;;4164940;28;20496;-63
2022/01/15 07:26:24;;;;;;;40.35;20.85;;;3.00;99.90;;;;;;4164300;28;20041;-63
2022/01/15 07:28:27;;;;;;;41.17;20.23;;;3.00;99.90;;;;;;4165987;28;20068;-63
2022/01/15 07:30:28;;;;;;;41.28;20.52;;;3.00;99.90;;;;;;4158905;28;20158;-63
2022/01/15 07:32:28;;;;;;;44.20;20.90;;;3.10;99.90;;;;;;4164712;28;20046;-63
2022/01/15 07:34:29;;;;;;;38.92;18.80;;;3.10;99.90;;;;;;4165947;28;20048;-63
2022/01/15 07:36:30;;;;;;;39.97;18.88;;;3.20;99.90;;;;;;4164902;28;20038;-63
2022/01/15 07:38:30;;;;;;;48.45;21.60;;;3.10;99.90;;;;;;4163513;28;20116;-63
2022/01/15 07:40:31;;;;;;;40.78;19.88;;;3.00;99.90;;;;;;4157001;28;20072;-63
2022/01/15 07:42:36;;;;;;;45.53;22.10;;;3.00;99.90;;;;;;4164431;28;20053;-63
2022/01/15 07:44:37;;;;;;;43.45;19.52;;;3.00;99.90;;;;;;4163574;28;20068;-63
2022/01/15 07:46:37;;;;;;;42.85;20.98;;;3.00;99.90;;;;;;4159586;28;20045;-63
2022/01/15 07:48:38;;;;;;;52.92;24.77;;;3.00;99.90;;;;;;4165228;28;20484;-63
2022/01/15 07:50:38;;;;;;;54.88;24.25;;;2.90;99.90;;;;;;4161164;28;20034;-64
2022/01/15 07:52:39;;;;;;;48.78;23.35;;;2.90;99.90;;;;;;4164691;28;20068;-64
2022/01/15 07:54:40;;;;;;;59.92;25.73;;;2.90;99.90;;;;;;4165420;28;20048;-64
2022/01/15 07:56:40;;;;;;;45.42;20.25;;;2.80;99.90;;;;;;4164904;28;20037;-64
2022/01/15 07:58:41;;;;;;;53.08;23.73;;;2.90;99.90;;;;;;4165454;28;20046;-63
2022/01/15 08:00:42;;;;;;;47.72;21.73;;;2.90;99.90;;;;;;4162948;28;20068;-63
2022/01/15 08:02:42;;;;;;;47.47;22.10;;;2.90;99.90;;;;;;4165154;28;20380;-64
2022/01/15 08:04:43;;;;;;;43.33;19.73;;;2.80;99.90;;;;;;4157547;28;20512;-64
2022/01/15 08:06:44;;;;;;;39.55;18.50;;;2.90;99.90;;;;;;4158814;28;20041;-64
2022/01/15 08:08:45;;;;;;;43.75;20.70;;;2.90;99.90;;;;;;4161420;28;20108;-64
2022/01/15 08:10:45;;;;;;;43.45;20.65;;;2.90;99.90;;;;;;4160275;28;20504;-64
2022/01/15 08:12:49;;;;;;;41.03;20.10;;;2.80;99.90;;;;;;4162917;28;20052;-63
2022/01/15 08:14:50;;;;;;;40.35;18.77;;;2.90;99.90;;;;;;4161296;28;20075;-62
2022/01/15 08:16:50;;;;;;;37.33;17.20;;;2.90;99.90;;;;;;4159499;28;20201;-63
2022/01/15 08:18:51;;;;;;;36.60;17.67;;;2.90;99.90;;;;;;4162021;28;20508;-63
2022/01/15 08:20:52;;;;;;;33.20;16.15;;;3.00;99.90;;;;;;4161787;28;20298;-63
2022/01/15 08:22:53;;;;;;;30.80;16.77;;;3.00;99.90;;;;;;4162046;28;20075;-63
2022/01/15 08:24:53;;;;;;;31.73;16.25;;;2.90;99.90;;;;;;4160952;28;20037;-63
2022/01/15 08:26:54;;;;;;;27.95;14.65;;;2.90;99.90;;;;;;4158460;28;20374;-63
2022/01/15 08:28:56;;;;;;;33.78;16.95;;;3.00;99.90;;;;;;4161160;28;20056;-63
2022/01/15 08:30:57;;;;;;;36.53;16.95;;;3.00;99.90;;;;;;4159132;28;20534;-63
2022/01/15 08:32:59;;;;;;;30.73;16.13;;;3.00;99.90;;;;;;4165258;28;20608;-63
2022/01/15 08:34:59;;;;;;;33.85;16.90;;;3.10;99.90;;;;;;4157442;28;20045;-63
2022/01/15 08:37:00;;;;;;;35.13;17.50;;;3.00;99.90;;;;;;4157450;28;20042;-63
2022/01/15 08:39:00;;;;;;;36.03;17.70;;;3.00;99.90;;;;;;4159379;28;20038;-63
2022/01/15 08:41:01;;;;;;;34.67;17.17;;;2.90;99.90;;;;;;4159784;28;20041;-63
2022/01/15 08:43:03;;;;;;;34.20;17.88;;;3.00;99.90;;;;;;4163097;28;20061;-63
2022/01/15 08:45:06;;;;;;;35.63;18.45;;;2.90;99.90;;;;;;4160072;28;20394;-64
2022/01/15 08:47:06;;;;;;;33.20;18.40;;;2.90;99.90;;;;;;4158750;28;20091;-63
2022/01/15 08:49:07;;;;;;;38.47;18.55;;;2.80;99.90;;;;;;4158764;28;20033;-63
2022/01/15 08:51:08;;;;;;;34.97;17.58;;;2.80;99.90;;;;;;4160445;28;20065;-63
2022/01/15 08:53:08;;;;;;;34.58;18.08;;;2.80;99.90;;;;;;4158451;28;20033;-65
2022/01/15 08:55:10;;;;;;;38.63;20.08;;;2.80;99.90;;;;;;4158697;28;20062;-66
2022/01/15 08:57:11;;;;;;;37.90;19.27;;;2.80;99.90;;;;;;4159447;28;20036;-64
2022/01/15 08:59:11;;;;;;;36.75;18.70;;;2.80;99.90;;;;;;4161727;28;20029;-63
2022/01/15 09:01:13;;;;;;;39.05;19.90;;;2.80;99.90;;;;;;4157840;28;20065;-64
2022/01/15 09:03:14;;;;;;;43.07;20.53;;;2.90;99.90;;;;;;4162478;28;20029;-64
2022/01/15 09:05:15;;;;;;;40.75;21.45;;;2.90;99.90;;;;;;4160320;28;20280;-64
2022/01/15 09:07:16;;;;;;;38.13;20.27;;;2.80;99.90;;;;;;4159634;28;20442;-64
2022/01/15 09:09:17;;;;;;;36.75;19.52;;;2.80;99.90;;;;;;4157922;28;20060;-64
2022/01/15 09:11:17;;;;;;;41.05;20.00;;;2.80;99.90;;;;;;4159799;28;20469;-63
2022/01/15 09:13:18;;;;;;;34.55;17.13;;;2.80;99.90;;;;;;4162469;28;20045;-63
2022/01/15 09:15:19;;;;;;;33.55;17.85;;;2.80;99.90;;;;;;4160656;28;20392;-64
2022/01/15 09:17:20;;;;;;;35.55;18.77;;;2.80;99.90;;;;;;4158190;28;20096;-63
2022/01/15 09:19:20;;;;;;;33.67;17.77;;;2.80;99.90;;;;;;4159264;28;20111;-63
2022/01/15 09:21:21;;;;;;;28.90;15.10;;;2.70;99.90;;;;;;4160591;28;20034;-64
2022/01/15 09:23:21;;;;;;;34.08;17.98;;;2.80;99.90;;;;;;4158332;28;20117;-63
2022/01/15 09:25:22;;;;;;;40.90;19.05;;;2.80;99.90;;;;;;4162103;28;20111;-63
2022/01/15 09:32:04;;;;;;;43.70;21.25;;;2.90;99.90;;;;;;4160074;28;20034;-63
2022/01/15 09:34:04;;;;;;;34.42;17.75;;;2.80;99.90;;;;;;4163782;28;20053;-63
2022/01/15 09:36:05;;;;;;;42.85;21.77;;;2.90;99.90;;;;;;4162902;28;20459;-63
2022/01/15 09:38:06;;;;;;;45.35;20.83;;;2.80;99.90;;;;;;4163890;28;20034;-63
2022/01/15 09:40:09;;;;;;;41.15;20.52;;;2.80;99.90;;;;;;4162655;28;20034;-65
2022/01/15 09:42:12;;;;;;;38.10;19.70;;;2.80;99.90;;;;;;4161414;28;20515;-63
2022/01/15 09:44:17;;;;;;;45.80;21.90;;;2.80;99.90;;;;;;4162477;28;20132;-63
2022/01/15 09:46:19;;;;;;;44.75;22.88;;;2.90;99.90;;;;;;4162740;28;20056;-63
2022/01/15 09:48:24;;;;;;;39.05;20.10;;;2.90;99.90;;;;;;4157750;28;20040;-63
2022/01/15 09:50:27;;;;;;;48.45;23.17;;;2.90;99.90;;;;;;4157841;28;20052;-63
2022/01/15 09:52:30;;;;;;;50.90;25.15;;;2.90;99.90;;;;;;4158839;28;20117;-63
2022/01/15 09:54:31;;;;;;;;;;;2.80;99.90;;;;;;4158273;28;20465;-63
2022/01/15 09:56:33;;;;;;;49.13;24.75;;;2.80;99.90;;;;;;4157278;28;19909;-63
2022/01/15 09:58:33;;;;;;;50.17;24.37;;;2.80;99.90;;;;;;4157044;28;20496;-63
2022/01/15 10:00:34;;;;;;;45.03;23.98;;;2.80;99.90;;;;;;4161774;28;20037;-63
2022/01/15 10:02:36;;;;;;;55.08;26.73;;;2.80;99.90;;;;;;4163399;28;20040;-63
2022/01/15 10:04:36;;;;;;;48.58;23.88;;;2.80;99.90;;;;;;4163131;28;20050;-64
2022/01/15 10:06:57;;;;;;;44.85;22.50;;;2.90;99.90;;;;;;4163056;28;20033;-64
2022/01/15 10:09:06;;;;;;;47.58;24.20;;;2.90;99.90;;;;;;4163284;28;20128;-64
2022/01/15 10:11:11;;;;;;;39.50;21.52;;;2.90;99.90;;;;;;4161408;28;20045;-64
2022/01/15 10:13:20;;;;;;;46.90;24.08;;;3.00;99.90;;;;;;4163066;28;20045;-65
2022/01/15 10:15:22;;;;;;;46.00;23.73;;;3.00;99.90;;;;;;4162498;28;20045;-64
2022/01/15 10:17:33;;;;;;;55.17;27.17;;;2.90;99.90;;;;;;4163170;28;20121;-64
2022/01/15 10:19:36;;;;;;;44.17;23.05;;;2.90;99.90;;;;;;4161572;28;20064;-63
2022/01/15 10:21:36;;;;;;;44.80;23.02;;;2.90;99.90;;;;;;4159693;28;20044;-63
2022/01/15 10:23:54;;;;;;;50.90;24.63;;;2.90;99.90;;;;;;4163109;28;20029;-64
2022/01/15 10:26:16;;;;;;;42.72;22.55;;;2.90;99.90;;;;;;4162292;28;20116;-63
2022/01/15 10:28:17;;;;;;;48.10;23.73;;;2.90;99.90;;;;;;4164592;28;20029;-64
2022/01/15 10:30:23;;;;;;;52.13;28.00;;;3.00;99.90;;;;;;4165120;28;20432;-64
2022/01/15 10:32:29;;;;;;;52.03;26.95;;;2.90;99.90;;;;;;4165799;28;20033;-64
2022/01/15 10:34:33;;;;;;;51.08;25.38;;;2.90;99.90;;;;;;4166546;28;20037;-63
2022/01/15 10:36:33;;;;;;;49.35;25.00;;;2.90;99.90;;;;;;4165955;28;20041;-64
2022/01/15 10:38:34;;;;;;;48.60;25.48;;;3.00;99.90;;;;;;4166704;28;20477;-64
2022/01/15 10:40:46;;;;;;;45.83;23.98;;;3.00;99.90;;;;;;4161342;28;20033;-63
2022/01/15 10:42:55;;;;;;;47.40;25.10;;;3.10;99.90;;;;;;4165630;28;20045;-64
2022/01/15 10:45:11;;;;;;;49.80;26.05;;;3.20;99.90;;;;;;4166605;28;20113;-63
2022/01/15 10:47:16;;;;;;;46.85;23.85;;;3.20;99.90;;;;;;4165144;28;20041;-64
2022/01/15 10:49:26;;;;;;;42.45;24.38;;;3.20;99.90;;;;;;4165339;28;20423;-64
2022/01/15 10:51:26;;;;;;;41.30;23.38;;;3.20;99.90;;;;;;4164387;28;20045;-64